Sommer S — WDG3830 — position and weather

sailwx.info

Track history (hours):
 
Tides and Currents Weather Stations Pressure Air Temp Water Temp Dewpoint Dewpoint Depression Visibility Wind Speed Wind Dir Waves Ship Positions

Sommer S

Owner: Shaver Transportation Company, Portland, OR. More information available from US FCC via Universal Licensing System and Coast Guard Vessel Documentation Center.

Last reported at 2015-Sep-02 03:33 UTC. Time now 2015-Sep-02 04:28 UTC.
Position N 46°10' W 123°14'.

Length 25 m.

Type: Tug. MMSI: 367530080.

Date/timePositionNaut miles runAvg speedWind from/ knotsBaromVisibWave heightAir tempDewpointWater temp
2015-Sep-02 03:33N 46°10' W 123°14'8 8.1
2015-Sep-02 02:33N 46°11' W 123°26'7 7.2
2015-Sep-02 01:33N 46°15' W 123°34'9 9.5
2015-Sep-02 00:33N 46°12' W 123°47'3 3.1
2015-Sep-01 23:33N 46°11' W 123°52'0 0.0
2015-Sep-01 22:33N 46°11' W 123°52'0 0.0
2015-Sep-01 21:34N 46°11' W 123°52'0 0.0
2015-Sep-01 20:33N 46°11' W 123°52'0 0.0
2015-Sep-01 19:33N 46°11' W 123°52'4 4.3
2015-Sep-01 18:33N 46°13' W 123°46'1111.0
2015-Sep-01 17:33N 46°16' W 123°31'1010.1
2015-Sep-01 16:33N 46°09' W 123°21'1110.7
2015-Sep-01 15:33N 46°10' W 123°06'1010.4
2015-Sep-01 14:33N 46°04' W 122°53'9 9.2
2015-Sep-01 13:33N 45°56' W 122°48'9 9.1
2015-Sep-01 12:33N 45°47' W 122°46'8 8.3
2015-Sep-01 11:33N 45°39' W 122°45'2 2.1
2015-Sep-01 10:33N 45°38' W 122°42'0 0.2
2015-Sep-01 09:33N 45°38' W 122°42'0 0.0
2015-Sep-01 08:33N 45°38' W 122°42'2 1.9
2015-Sep-01 07:33N 45°39' W 122°45'3 2.6
2015-Sep-01 06:33N 45°37' W 122°47'3 3.3
2015-Sep-01 05:33N 45°34' W 122°44'5 4.6
2015-Sep-01 04:33N 45°39' W 122°45'0 0.0
2015-Sep-01 03:33N 45°39' W 122°45'1 1.0
2015-Sep-01 02:33N 45°38' W 122°43'1 1.2
2015-Sep-01 01:33N 45°38' W 122°42'2 1.5
2015-Sep-01 00:33N 45°38' W 122°44'0 0.1
2015-Aug-31 23:33N 45°38' W 122°44'2 2.4
2015-Aug-31 22:33N 45°38' W 122°47'8 7.6
2015-Aug-31 21:33N 45°32' W 122°40'3 2.7
2015-Aug-31 20:33N 45°34' W 122°44'0 0.0
2015-Aug-31 19:33N 45°34' W 122°44'0 0.0
2015-Aug-31 18:33N 45°34' W 122°44'0 0.0
2015-Aug-31 17:33N 45°34' W 122°44'0 0.0
2015-Aug-31 16:33N 45°34' W 122°44'0 0.0
2015-Aug-31 15:33N 45°34' W 122°44'1 1.4
2015-Aug-31 14:33N 45°33' W 122°42'1 1.1
2015-Aug-31 13:33N 45°32' W 122°41'4 3.9
2015-Aug-31 12:33N 45°35' W 122°45'4 3.9
2015-Aug-31 11:33N 45°38' W 122°42'1 0.8
2015-Aug-31 10:33N 45°38' W 122°43'1 1.4
2015-Aug-31 09:33N 45°39' W 122°45'0 0.0
2015-Aug-31 08:33N 45°39' W 122°45'0 0.0
2015-Aug-31 07:33N 45°39' W 122°45'0 0.0
2015-Aug-31 06:33N 45°39' W 122°45'0 0.0
2015-Aug-31 05:33N 45°39' W 122°45'1 0.9
2015-Aug-31 04:33N 45°38' W 122°44'1 0.9
2015-Aug-31 03:33N 45°38' W 122°43'2 1.6
2015-Aug-31 02:33N 45°39' W 122°45'0 0.0
2015-Aug-31 01:34N 45°39' W 122°45'0 0.0
2015-Aug-31 00:33N 45°39' W 122°45'0 0.0
2015-Aug-30 23:33N 45°39' W 122°45'0 0.0
2015-Aug-30 22:33N 45°39' W 122°45'1 1.1
2015-Aug-30 21:33N 45°38' W 122°43'0 0.3
2015-Aug-30 20:33N 45°38' W 122°44'0 0.0
2015-Aug-30 19:33N 45°38' W 122°44'0 0.0
2015-Aug-30 18:33N 45°38' W 122°44'0 0.0
2015-Aug-30 17:33N 45°38' W 122°44'0 0.0
2015-Aug-30 16:33N 45°38' W 122°44'0 0.0
2015-Aug-30 15:33N 45°38' W 122°44'1 1.3
2015-Aug-30 14:32N 45°39' W 122°45'5 5.6
2015-Aug-30 13:33N 45°34' W 122°44'3 3.1
2015-Aug-30 12:32N 45°32' W 122°40'0 0.0
2015-Aug-30 11:34N 45°32' W 122°40'3 3.1
2015-Aug-30 10:33N 45°34' W 122°44'6 5.6
2015-Aug-30 09:33N 45°39' W 122°46'1 0.8
2015-Aug-30 08:33N 45°39' W 122°45'0 0.0
2015-Aug-30 07:33N 45°39' W 122°45'2 1.5
2015-Aug-30 06:33N 45°38' W 122°43'0 0.4
2015-Aug-30 05:33N 45°38' W 122°43'2 1.9
2015-Aug-30 04:33N 45°39' W 122°45'2 2.1
2015-Aug-30 03:33N 45°38' W 122°42'1 0.8
2015-Aug-30 02:33N 45°38' W 122°43'1 1.1
2015-Aug-30 01:32N 45°38' W 122°42'0 0.1
2015-Aug-30 00:33N 45°38' W 122°42'0 0.0
2015-Aug-29 23:33N 45°38' W 122°42'1 1.3
2015-Aug-29 22:33N 45°38' W 122°44'1 0.8
2015-Aug-29 21:33N 45°39' W 122°45'0 0.0
2015-Aug-29 20:33N 45°39' W 122°45'0 0.0
2015-Aug-29 19:33N 45°39' W 122°45'0 0.0
2015-Aug-29 18:33N 45°39' W 122°45'0 0.0
2015-Aug-29 17:33N 45°39' W 122°45'2 2.3
2015-Aug-29 16:33N 45°38' W 122°42'1 0.7
2015-Aug-29 15:33N 45°38' W 122°42'1 0.9
2015-Aug-29 14:33N 45°38' W 122°44'0 0.0
2015-Aug-29 13:33N 45°38' W 122°44'2 1.5
2015-Aug-29 12:33N 45°38' W 122°42'1 1.5
2015-Aug-29 11:33N 45°38' W 122°44'0 0.0
2015-Aug-29 10:33N 45°38' W 122°44'0 0.0
2015-Aug-29 09:33N 45°38' W 122°44'0 0.0
2015-Aug-29 08:33N 45°38' W 122°44'0 0.1
2015-Aug-29 07:32N 45°38' W 122°44'1 1.3
2015-Aug-29 06:33N 45°38' W 122°42'0 0.0
2015-Aug-29 05:33N 45°38' W 122°42'3 3.3
2015-Aug-29 04:33N 45°39' W 122°46'7 7.1
2015-Aug-29 03:34N 45°33' W 122°41'1 0.5
2015-Aug-29 02:33N 45°32' W 122°41'3 2.5
2015-Aug-29 01:34N 45°34' W 122°44'3 3.4
2015-Aug-29 00:33N 45°36' W 122°47'3 3.1
2015-Aug-28 23:33N 45°39' W 122°46'0 0.0
2015-Aug-28 22:33N 45°39' W 122°46'0 0.0
2015-Aug-28 21:33N 45°39' W 122°46'2 2.1
2015-Aug-28 20:33N 45°38' W 122°43'1 0.9
2015-Aug-28 19:33N 45°38' W 122°42'5 5.3
2015-Aug-28 18:33N 45°42' W 122°46'9 9.2
2015-Aug-28 17:33N 45°51' W 122°47'8 8.2
2015-Aug-28 16:34N 45°59' W 122°50'8 7.9
2015-Aug-28 15:33N 46°06' W 122°56'0 0.2
2015-Aug-28 14:33N 46°06' W 122°56'0 0.0
2015-Aug-28 13:33N 46°06' W 122°56'0 0.0
2015-Aug-28 12:33N 46°06' W 122°56'0 0.1
2015-Aug-28 11:33N 46°06' W 122°56'1 0.8
2015-Aug-28 10:33N 46°06' W 122°58'1 0.8
2015-Aug-28 09:33N 46°06' W 122°56'0 0.0
2015-Aug-28 08:33N 46°06' W 122°56'0 0.0
2015-Aug-28 07:33N 46°06' W 122°56'0 0.0
2015-Aug-28 06:33N 46°06' W 122°56'0 0.0
2015-Aug-28 05:33N 46°06' W 122°56'0 0.0
2015-Aug-28 04:33N 46°06' W 122°56'0 0.0
2015-Aug-28 03:33N 46°06' W 122°56'0 0.1
2015-Aug-28 02:33N 46°06' W 122°56'4 3.5
2015-Aug-28 01:33N 46°03' W 122°53'5 4.7
2015-Aug-28 00:33N 45°59' W 122°50'0 0.1
2015-Aug-27 23:33N 45°59' W 122°50'0 0.2
2015-Aug-27 22:33N 45°59' W 122°50'0 0.0
2015-Aug-27 21:33N 45°59' W 122°50'5 4.8
2015-Aug-27 20:33N 45°55' W 122°49'1211.9
2015-Aug-27 19:33N 45°43' W 122°46'3 2.7
2015-Aug-27 18:33N 45°40' W 122°46'0 0.0
2015-Aug-27 17:33N 45°40' W 122°46'0 0.0
2015-Aug-27 16:33N 45°40' W 122°46'1 1.2
2015-Aug-27 15:33N 45°39' W 122°46'6 5.5
2015-Aug-27 14:33N 45°34' W 122°44'0 0.0
2015-Aug-27 13:33N 45°34' W 122°44'0 0.0
2015-Aug-27 12:33N 45°34' W 122°44'0 0.0
2015-Aug-27 11:33N 45°34' W 122°44'0 0.0
2015-Aug-27 10:33N 45°34' W 122°44'0 0.0
2015-Aug-27 09:33N 45°34' W 122°44'0 0.0
2015-Aug-27 08:33N 45°34' W 122°44'0 0.0
2015-Aug-27 07:33N 45°34' W 122°44'2 2.3
2015-Aug-27 06:33N 45°35' W 122°46'1 1.1
2015-Aug-27 05:33N 45°36' W 122°47'3 3.3
2015-Aug-27 04:33N 45°39' W 122°44'3 3.4
2015-Aug-27 03:33N 45°36' W 122°47'3 2.6
2015-Aug-27 02:33N 45°34' W 122°44'4 3.9
2015-Aug-27 01:32N 45°37' W 122°47'9 8.7
2015-Aug-27 00:33N 45°46' W 122°46'10 9.9
2015-Aug-26 23:33N 45°56' W 122°48'1010.4
2015-Aug-26 22:33N 46°05' W 122°54'1 1.5
2015-Aug-26 21:33N 46°06' W 122°56'1 0.5
2015-Aug-26 20:33N 46°05' W 122°56'0 0.0
2015-Aug-26 19:33N 46°05' W 122°56'0 0.0
2015-Aug-26 18:33N 46°05' W 122°56'0 0.0
2015-Aug-26 17:33N 46°05' W 122°56'0 0.0
2015-Aug-26 16:32N 46°05' W 122°56'1 0.6
2015-Aug-26 15:32N 46°06' W 122°56'0 0.0
2015-Aug-26 14:33N 46°06' W 122°56'0 0.4
2015-Aug-26 13:33N 46°06' W 122°57'1 0.6
2015-Aug-26 12:33N 46°06' W 122°58'1 0.5
2015-Aug-26 11:33N 46°06' W 122°57'0 0.0
2015-Aug-26 10:33N 46°06' W 122°57'0 0.0
2015-Aug-26 09:33N 46°06' W 122°57'0 0.4
2015-Aug-26 08:33N 46°06' W 122°57'0 0.1
2015-Aug-26 07:33N 46°06' W 122°56'0 0.0
2015-Aug-26 06:33N 46°06' W 122°56'0 0.0
2015-Aug-26 05:33N 46°06' W 122°56'0 0.0
2015-Aug-26 04:33N 46°06' W 122°56'0 0.0
2015-Aug-26 03:33N 46°06' W 122°56'2 1.7
2015-Aug-26 02:33N 46°05' W 122°54'7 6.8
2015-Aug-26 01:33N 45°59' W 122°50'1 1.4
2015-Aug-26 00:33N 46°00' W 122°51'1 1.2
2015-Aug-25 23:33N 45°59' W 122°50'0 0.0
2015-Aug-25 22:33N 45°59' W 122°50'0 0.0
2015-Aug-25 21:34N 45°59' W 122°50'0 0.0
2015-Aug-25 20:33N 45°59' W 122°50'9 9.3
2015-Aug-25 19:33N 45°50' W 122°47'1111.2
2015-Aug-25 18:33N 45°39' W 122°45'3 2.8
2015-Aug-25 17:33N 45°38' W 122°42'1 1.1
2015-Aug-25 16:33N 45°38' W 122°43'1 1.4
2015-Aug-25 15:33N 45°39' W 122°45'0 0.0
2015-Aug-25 14:33N 45°39' W 122°45'0 0.0
2015-Aug-25 13:33N 45°39' W 122°45'0 0.0
2015-Aug-25 12:33N 45°39' W 122°45'0 0.0
2015-Aug-25 11:33N 45°39' W 122°45'0 0.0
2015-Aug-25 10:33N 45°39' W 122°45'2 2.4
2015-Aug-25 09:33N 45°38' W 122°42'1 1.3
2015-Aug-25 08:33N 45°38' W 122°43'1 0.6
2015-Aug-25 07:33N 45°39' W 122°44'1 0.8
2015-Aug-25 06:33N 45°39' W 122°45'0 0.0
2015-Aug-25 05:33N 45°39' W 122°45'0 0.0
2015-Aug-25 04:33N 45°39' W 122°45'0 0.0
2015-Aug-25 03:34N 45°39' W 122°45'0 0.0
2015-Aug-25 02:33N 45°39' W 122°45'0 0.0
2015-Aug-25 01:33N 45°39' W 122°45'0 0.0
2015-Aug-25 00:32N 45°39' W 122°45'0 0.0
2015-Aug-24 23:33N 45°39' W 122°45'0 0.0
2015-Aug-24 22:33N 45°39' W 122°45'0 0.0
2015-Aug-24 21:33N 45°39' W 122°45'0 0.0
2015-Aug-24 20:33N 45°39' W 122°45'0 0.0
2015-Aug-24 19:33N 45°39' W 122°45'0 0.0
2015-Aug-24 18:33N 45°39' W 122°45'1 0.9
2015-Aug-24 17:33N 45°38' W 122°44'1 1.1
2015-Aug-24 16:33N 45°38' W 122°42'0 0.5
2015-Aug-24 15:32N 45°38' W 122°42'4 4.0
2015-Aug-24 14:33N 45°37' W 122°47'4 3.9
2015-Aug-24 13:33N 45°34' W 122°44'2 2.4
2015-Aug-24 12:33N 45°32' W 122°41'2 2.4
2015-Aug-24 11:33N 45°34' W 122°44'0 0.4
2015-Aug-24 10:33N 45°34' W 122°44'5 4.8
2015-Aug-24 09:33N 45°39' W 122°45'2 2.0
2015-Aug-24 08:33N 45°38' W 122°42'0 0.3
2015-Aug-24 07:33N 45°38' W 122°43'1 1.4
2015-Aug-24 06:33N 45°39' W 122°45'0 0.0
2015-Aug-24 05:33N 45°39' W 122°45'0 0.0
2015-Aug-24 04:33N 45°39' W 122°45'0 0.0
2015-Aug-24 03:33N 45°39' W 122°45'2 2.4
2015-Aug-24 02:33N 45°38' W 122°42'3 2.9
2015-Aug-24 01:33N 45°39' W 122°45'5 5.2
2015-Aug-24 00:33N 45°34' W 122°44'4 4.1
2015-Aug-23 23:33N 45°37' W 122°47'4 3.9
2015-Aug-23 22:33N 45°38' W 122°42'1 1.1
2015-Aug-23 21:31N 45°38' W 122°44'0 0.0
2015-Aug-23 20:33N 45°38' W 122°44'0 0.4
2015-Aug-23 19:33N 45°38' W 122°43'1 1.2
2015-Aug-23 18:34N 45°38' W 122°42'4 4.0
2015-Aug-23 17:33N 45°35' W 122°46'2 2.1
2015-Aug-23 16:33N 45°34' W 122°44'0 0.0
2015-Aug-23 15:32N 45°34' W 122°44'1 0.7
2015-Aug-23 14:33N 45°34' W 122°44'3 2.5
2015-Aug-23 13:33N 45°36' W 122°47'0 0.0
2015-Aug-23 12:33N 45°36' W 122°47'0 0.0
2015-Aug-23 11:33N 45°36' W 122°47'0 0.0
2015-Aug-23 10:33N 45°36' W 122°47'0 0.0
2015-Aug-23 09:30N 45°36' W 122°47'0 0.0
2015-Aug-23 08:32N 45°36' W 122°47'0 0.0
2015-Aug-23 07:33N 45°36' W 122°47'0 0.0
2015-Aug-23 06:33N 45°36' W 122°47'3 3.1
2015-Aug-23 05:33N 45°39' W 122°46'2 1.7
2015-Aug-23 04:34N 45°38' W 122°44'  
Track history (hours):
 
Tides and Currents Weather Stations Pressure Air Temp Water Temp Dewpoint Dewpoint Depression Visibility Wind Speed Wind Dir Waves Ship Positions

Sommer S

Owner: Shaver Transportation Company, Portland, OR. More information available from US FCC via Universal Licensing System and Coast Guard Vessel Documentation Center.

Last reported at 2015-Sep-02 03:33 UTC. Time now 2015-Sep-02 04:28 UTC.
Position N 46°10' W 123°14'.

Length 25 m.

Type: Tug. MMSI: 367530080.

Date/timePositionNaut miles runAvg speedWind from/ knotsBaromVisibWave heightAir tempDewpointWater temp
2015-Sep-02 03:33N 46°10' W 123°14'8 8.1
2015-Sep-02 02:33N 46°11' W 123°26'7 7.2
2015-Sep-02 01:33N 46°15' W 123°34'9 9.5
2015-Sep-02 00:33N 46°12' W 123°47'3 3.1
2015-Sep-01 23:33N 46°11' W 123°52'0 0.0
2015-Sep-01 22:33N 46°11' W 123°52'0 0.0
2015-Sep-01 21:34N 46°11' W 123°52'0 0.0
2015-Sep-01 20:33N 46°11' W 123°52'0 0.0
2015-Sep-01 19:33N 46°11' W 123°52'4 4.3
2015-Sep-01 18:33N 46°13' W 123°46'1111.0
2015-Sep-01 17:33N 46°16' W 123°31'1010.1
2015-Sep-01 16:33N 46°09' W 123°21'1110.7
2015-Sep-01 15:33N 46°10' W 123°06'1010.4
2015-Sep-01 14:33N 46°04' W 122°53'9 9.2
2015-Sep-01 13:33N 45°56' W 122°48'9 9.1
2015-Sep-01 12:33N 45°47' W 122°46'8 8.3
2015-Sep-01 11:33N 45°39' W 122°45'2 2.1
2015-Sep-01 10:33N 45°38' W 122°42'0 0.2
2015-Sep-01 09:33N 45°38' W 122°42'0 0.0
2015-Sep-01 08:33N 45°38' W 122°42'2 1.9
2015-Sep-01 07:33N 45°39' W 122°45'3 2.6
2015-Sep-01 06:33N 45°37' W 122°47'3 3.3
2015-Sep-01 05:33N 45°34' W 122°44'5 4.6
2015-Sep-01 04:33N 45°39' W 122°45'0 0.0
2015-Sep-01 03:33N 45°39' W 122°45'1 1.0
2015-Sep-01 02:33N 45°38' W 122°43'1 1.2
2015-Sep-01 01:33N 45°38' W 122°42'2 1.5
2015-Sep-01 00:33N 45°38' W 122°44'0 0.1
2015-Aug-31 23:33N 45°38' W 122°44'2 2.4
2015-Aug-31 22:33N 45°38' W 122°47'8 7.6
2015-Aug-31 21:33N 45°32' W 122°40'3 2.7
2015-Aug-31 20:33N 45°34' W 122°44'0 0.0
2015-Aug-31 19:33N 45°34' W 122°44'0 0.0
2015-Aug-31 18:33N 45°34' W 122°44'0 0.0
2015-Aug-31 17:33N 45°34' W 122°44'0 0.0
2015-Aug-31 16:33N 45°34' W 122°44'0 0.0
2015-Aug-31 15:33N 45°34' W 122°44'1 1.4
2015-Aug-31 14:33N 45°33' W 122°42'1 1.1
2015-Aug-31 13:33N 45°32' W 122°41'4 3.9
2015-Aug-31 12:33N 45°35' W 122°45'4 3.9
2015-Aug-31 11:33N 45°38' W 122°42'1 0.8
2015-Aug-31 10:33N 45°38' W 122°43'1 1.4
2015-Aug-31 09:33N 45°39' W 122°45'0 0.0
2015-Aug-31 08:33N 45°39' W 122°45'0 0.0
2015-Aug-31 07:33N 45°39' W 122°45'0 0.0
2015-Aug-31 06:33N 45°39' W 122°45'0 0.0
2015-Aug-31 05:33N 45°39' W 122°45'1 0.9
2015-Aug-31 04:33N 45°38' W 122°44'1 0.9
2015-Aug-31 03:33N 45°38' W 122°43'2 1.6
2015-Aug-31 02:33N 45°39' W 122°45'0 0.0
2015-Aug-31 01:34N 45°39' W 122°45'0 0.0
2015-Aug-31 00:33N 45°39' W 122°45'0 0.0
2015-Aug-30 23:33N 45°39' W 122°45'0 0.0
2015-Aug-30 22:33N 45°39' W 122°45'1 1.1
2015-Aug-30 21:33N 45°38' W 122°43'0 0.3
2015-Aug-30 20:33N 45°38' W 122°44'0 0.0
2015-Aug-30 19:33N 45°38' W 122°44'0 0.0
2015-Aug-30 18:33N 45°38' W 122°44'0 0.0
2015-Aug-30 17:33N 45°38' W 122°44'0 0.0
2015-Aug-30 16:33N 45°38' W 122°44'0 0.0
2015-Aug-30 15:33N 45°38' W 122°44'1 1.3
2015-Aug-30 14:32N 45°39' W 122°45'5 5.6
2015-Aug-30 13:33N 45°34' W 122°44'3 3.1
2015-Aug-30 12:32N 45°32' W 122°40'0 0.0
2015-Aug-30 11:34N 45°32' W 122°40'3 3.1
2015-Aug-30 10:33N 45°34' W 122°44'6 5.6
2015-Aug-30 09:33N 45°39' W 122°46'1 0.8
2015-Aug-30 08:33N 45°39' W 122°45'0 0.0
2015-Aug-30 07:33N 45°39' W 122°45'2 1.5
2015-Aug-30 06:33N 45°38' W 122°43'0 0.4
2015-Aug-30 05:33N 45°38' W 122°43'2 1.9
2015-Aug-30 04:33N 45°39' W 122°45'2 2.1
2015-Aug-30 03:33N 45°38' W 122°42'1 0.8
2015-Aug-30 02:33N 45°38' W 122°43'1 1.1
2015-Aug-30 01:32N 45°38' W 122°42'0 0.1
2015-Aug-30 00:33N 45°38' W 122°42'0 0.0
2015-Aug-29 23:33N 45°38' W 122°42'1 1.3
2015-Aug-29 22:33N 45°38' W 122°44'1 0.8
2015-Aug-29 21:33N 45°39' W 122°45'0 0.0
2015-Aug-29 20:33N 45°39' W 122°45'0 0.0
2015-Aug-29 19:33N 45°39' W 122°45'0 0.0
2015-Aug-29 18:33N 45°39' W 122°45'0 0.0
2015-Aug-29 17:33N 45°39' W 122°45'2 2.3
2015-Aug-29 16:33N 45°38' W 122°42'1 0.7
2015-Aug-29 15:33N 45°38' W 122°42'1 0.9
2015-Aug-29 14:33N 45°38' W 122°44'0 0.0
2015-Aug-29 13:33N 45°38' W 122°44'2 1.5
2015-Aug-29 12:33N 45°38' W 122°42'1 1.5
2015-Aug-29 11:33N 45°38' W 122°44'0 0.0
2015-Aug-29 10:33N 45°38' W 122°44'0 0.0
2015-Aug-29 09:33N 45°38' W 122°44'0 0.0
2015-Aug-29 08:33N 45°38' W 122°44'0 0.1
2015-Aug-29 07:32N 45°38' W 122°44'1 1.3
2015-Aug-29 06:33N 45°38' W 122°42'0 0.0
2015-Aug-29 05:33N 45°38' W 122°42'3 3.3
2015-Aug-29 04:33N 45°39' W 122°46'7 7.1
2015-Aug-29 03:34N 45°33' W 122°41'1 0.5
2015-Aug-29 02:33N 45°32' W 122°41'3 2.5
2015-Aug-29 01:34N 45°34' W 122°44'3 3.4
2015-Aug-29 00:33N 45°36' W 122°47'3 3.1
2015-Aug-28 23:33N 45°39' W 122°46'0 0.0
2015-Aug-28 22:33N 45°39' W 122°46'0 0.0
2015-Aug-28 21:33N 45°39' W 122°46'2 2.1
2015-Aug-28 20:33N 45°38' W 122°43'1 0.9
2015-Aug-28 19:33N 45°38' W 122°42'5 5.3
2015-Aug-28 18:33N 45°42' W 122°46'9 9.2
2015-Aug-28 17:33N 45°51' W 122°47'8 8.2
2015-Aug-28 16:34N 45°59' W 122°50'8 7.9
2015-Aug-28 15:33N 46°06' W 122°56'0 0.2
2015-Aug-28 14:33N 46°06' W 122°56'0 0.0
2015-Aug-28 13:33N 46°06' W 122°56'0 0.0
2015-Aug-28 12:33N 46°06' W 122°56'0 0.1
2015-Aug-28 11:33N 46°06' W 122°56'1 0.8
2015-Aug-28 10:33N 46°06' W 122°58'1 0.8
2015-Aug-28 09:33N 46°06' W 122°56'0 0.0
2015-Aug-28 08:33N 46°06' W 122°56'0 0.0
2015-Aug-28 07:33N 46°06' W 122°56'0 0.0
2015-Aug-28 06:33N 46°06' W 122°56'0 0.0
2015-Aug-28 05:33N 46°06' W 122°56'0 0.0
2015-Aug-28 04:33N 46°06' W 122°56'0 0.0
2015-Aug-28 03:33N 46°06' W 122°56'0 0.1
2015-Aug-28 02:33N 46°06' W 122°56'4 3.5
2015-Aug-28 01:33N 46°03' W 122°53'5 4.7
2015-Aug-28 00:33N 45°59' W 122°50'0 0.1
2015-Aug-27 23:33N 45°59' W 122°50'0 0.2
2015-Aug-27 22:33N 45°59' W 122°50'0 0.0
2015-Aug-27 21:33N 45°59' W 122°50'5 4.8
2015-Aug-27 20:33N 45°55' W 122°49'1211.9
2015-Aug-27 19:33N 45°43' W 122°46'3 2.7
2015-Aug-27 18:33N 45°40' W 122°46'0 0.0
2015-Aug-27 17:33N 45°40' W 122°46'0 0.0
2015-Aug-27 16:33N 45°40' W 122°46'1 1.2
2015-Aug-27 15:33N 45°39' W 122°46'6 5.5
2015-Aug-27 14:33N 45°34' W 122°44'0 0.0
2015-Aug-27 13:33N 45°34' W 122°44'0 0.0
2015-Aug-27 12:33N 45°34' W 122°44'0 0.0
2015-Aug-27 11:33N 45°34' W 122°44'0 0.0
2015-Aug-27 10:33N 45°34' W 122°44'0 0.0
2015-Aug-27 09:33N 45°34' W 122°44'0 0.0
2015-Aug-27 08:33N 45°34' W 122°44'0 0.0
2015-Aug-27 07:33N 45°34' W 122°44'2 2.3
2015-Aug-27 06:33N 45°35' W 122°46'1 1.1
2015-Aug-27 05:33N 45°36' W 122°47'3 3.3
2015-Aug-27 04:33N 45°39' W 122°44'3 3.4
2015-Aug-27 03:33N 45°36' W 122°47'3 2.6
2015-Aug-27 02:33N 45°34' W 122°44'4 3.9
2015-Aug-27 01:32N 45°37' W 122°47'9 8.7
2015-Aug-27 00:33N 45°46' W 122°46'10 9.9
2015-Aug-26 23:33N 45°56' W 122°48'1010.4
2015-Aug-26 22:33N 46°05' W 122°54'1 1.5
2015-Aug-26 21:33N 46°06' W 122°56'1 0.5
2015-Aug-26 20:33N 46°05' W 122°56'0 0.0
2015-Aug-26 19:33N 46°05' W 122°56'0 0.0
2015-Aug-26 18:33N 46°05' W 122°56'0 0.0
2015-Aug-26 17:33N 46°05' W 122°56'0 0.0
2015-Aug-26 16:32N 46°05' W 122°56'1 0.6
2015-Aug-26 15:32N 46°06' W 122°56'0 0.0
2015-Aug-26 14:33N 46°06' W 122°56'0 0.4
2015-Aug-26 13:33N 46°06' W 122°57'1 0.6
2015-Aug-26 12:33N 46°06' W 122°58'1 0.5
2015-Aug-26 11:33N 46°06' W 122°57'0 0.0
2015-Aug-26 10:33N 46°06' W 122°57'0 0.0
2015-Aug-26 09:33N 46°06' W 122°57'0 0.4
2015-Aug-26 08:33N 46°06' W 122°57'0 0.1
2015-Aug-26 07:33N 46°06' W 122°56'0 0.0
2015-Aug-26 06:33N 46°06' W 122°56'0 0.0
2015-Aug-26 05:33N 46°06' W 122°56'0 0.0
2015-Aug-26 04:33N 46°06' W 122°56'0 0.0
2015-Aug-26 03:33N 46°06' W 122°56'2 1.7
2015-Aug-26 02:33N 46°05' W 122°54'7 6.8
2015-Aug-26 01:33N 45°59' W 122°50'1 1.4
2015-Aug-26 00:33N 46°00' W 122°51'1 1.2
2015-Aug-25 23:33N 45°59' W 122°50'0 0.0
2015-Aug-25 22:33N 45°59' W 122°50'0 0.0
2015-Aug-25 21:34N 45°59' W 122°50'0 0.0
2015-Aug-25 20:33N 45°59' W 122°50'9 9.3
2015-Aug-25 19:33N 45°50' W 122°47'1111.2
2015-Aug-25 18:33N 45°39' W 122°45'3 2.8
2015-Aug-25 17:33N 45°38' W 122°42'1 1.1
2015-Aug-25 16:33N 45°38' W 122°43'1 1.4
2015-Aug-25 15:33N 45°39' W 122°45'0 0.0
2015-Aug-25 14:33N 45°39' W 122°45'0 0.0
2015-Aug-25 13:33N 45°39' W 122°45'0 0.0
2015-Aug-25 12:33N 45°39' W 122°45'0 0.0
2015-Aug-25 11:33N 45°39' W 122°45'0 0.0
2015-Aug-25 10:33N 45°39' W 122°45'2 2.4
2015-Aug-25 09:33N 45°38' W 122°42'1 1.3
2015-Aug-25 08:33N 45°38' W 122°43'1 0.6
2015-Aug-25 07:33N 45°39' W 122°44'1 0.8
2015-Aug-25 06:33N 45°39' W 122°45'0 0.0
2015-Aug-25 05:33N 45°39' W 122°45'0 0.0
2015-Aug-25 04:33N 45°39' W 122°45'0 0.0
2015-Aug-25 03:34N 45°39' W 122°45'0 0.0
2015-Aug-25 02:33N 45°39' W 122°45'0 0.0
2015-Aug-25 01:33N 45°39' W 122°45'0 0.0
2015-Aug-25 00:32N 45°39' W 122°45'0 0.0
2015-Aug-24 23:33N 45°39' W 122°45'0 0.0
2015-Aug-24 22:33N 45°39' W 122°45'0 0.0
2015-Aug-24 21:33N 45°39' W 122°45'0 0.0
2015-Aug-24 20:33N 45°39' W 122°45'0 0.0
2015-Aug-24 19:33N 45°39' W 122°45'0 0.0
2015-Aug-24 18:33N 45°39' W 122°45'1 0.9
2015-Aug-24 17:33N 45°38' W 122°44'1 1.1
2015-Aug-24 16:33N 45°38' W 122°42'0 0.5
2015-Aug-24 15:32N 45°38' W 122°42'4 4.0
2015-Aug-24 14:33N 45°37' W 122°47'4 3.9
2015-Aug-24 13:33N 45°34' W 122°44'2 2.4
2015-Aug-24 12:33N 45°32' W 122°41'2 2.4
2015-Aug-24 11:33N 45°34' W 122°44'0 0.4
2015-Aug-24 10:33N 45°34' W 122°44'5 4.8
2015-Aug-24 09:33N 45°39' W 122°45'2 2.0
2015-Aug-24 08:33N 45°38' W 122°42'0 0.3
2015-Aug-24 07:33N 45°38' W 122°43'1 1.4
2015-Aug-24 06:33N 45°39' W 122°45'0 0.0
2015-Aug-24 05:33N 45°39' W 122°45'0 0.0
2015-Aug-24 04:33N 45°39' W 122°45'0 0.0
2015-Aug-24 03:33N 45°39' W 122°45'2 2.4
2015-Aug-24 02:33N 45°38' W 122°42'3 2.9
2015-Aug-24 01:33N 45°39' W 122°45'5 5.2
2015-Aug-24 00:33N 45°34' W 122°44'4 4.1
2015-Aug-23 23:33N 45°37' W 122°47'4 3.9
2015-Aug-23 22:33N 45°38' W 122°42'1 1.1
2015-Aug-23 21:31N 45°38' W 122°44'0 0.0
2015-Aug-23 20:33N 45°38' W 122°44'0 0.4
2015-Aug-23 19:33N 45°38' W 122°43'1 1.2
2015-Aug-23 18:34N 45°38' W 122°42'4 4.0
2015-Aug-23 17:33N 45°35' W 122°46'2 2.1
2015-Aug-23 16:33N 45°34' W 122°44'0 0.0
2015-Aug-23 15:32N 45°34' W 122°44'1 0.7
2015-Aug-23 14:33N 45°34' W 122°44'3 2.5
2015-Aug-23 13:33N 45°36' W 122°47'0 0.0
2015-Aug-23 12:33N 45°36' W 122°47'0 0.0
2015-Aug-23 11:33N 45°36' W 122°47'0 0.0
2015-Aug-23 10:33N 45°36' W 122°47'0 0.0
2015-Aug-23 09:30N 45°36' W 122°47'0 0.0
2015-Aug-23 08:32N 45°36' W 122°47'0 0.0
2015-Aug-23 07:33N 45°36' W 122°47'0 0.0
2015-Aug-23 06:33N 45°36' W 122°47'3 3.1
2015-Aug-23 05:33N 45°39' W 122°46'2 1.7
2015-Aug-23 04:34N 45°38' W 122°44'  

Dump ship's entire track history